createdAt,value
2022-08-05T00:04:33.076Z,101364.16
2022-08-05T00:09:37.333Z,101367.66
2022-08-05T00:14:41.043Z,101365.87
2022-08-05T00:20:02.800Z,101366.78
2022-08-05T00:25:08.376Z,101375.53
2022-08-05T00:30:16.432Z,101378.12
2022-08-05T00:35:21.871Z,101387.72
2022-08-05T00:40:53.347Z,101396.50
2022-08-05T00:45:57.212Z,101388.56
2022-08-05T00:51:08.988Z,101393.78
2022-08-05T00:56:26.005Z,101387.62
2022-08-05T01:01:48.769Z,101379.69
2022-08-05T01:06:54.952Z,101400.72
2022-08-05T01:12:09.124Z,101423.44
2022-08-05T01:17:17.198Z,101422.56
2022-08-05T01:22:47.190Z,101439.22
2022-08-05T01:28:10.362Z,101457.63
2022-08-05T01:33:19.603Z,101459.34
2022-08-05T01:38:29.160Z,101430.34
2022-08-05T01:43:36.772Z,101422.44
2022-08-05T01:48:49.368Z,101419.75
2022-08-05T01:53:58.503Z,101416.16
2022-08-05T01:59:08.946Z,101414.34
2022-08-05T02:04:15.896Z,101403.78
2022-08-05T02:09:20.610Z,101401.12
2022-08-05T02:14:32.103Z,101371.25
2022-08-05T02:19:46.983Z,101367.59
2022-08-05T02:24:54.151Z,101377.16
2022-08-05T02:30:03.086Z,101385.91
2022-08-05T02:35:14.467Z,101404.19
2022-08-05T02:40:25.199Z,101411.09
2022-08-05T02:45:51.520Z,101421.62
2022-08-05T02:50:58.060Z,101412.00
2022-08-05T02:56:03.311Z,101403.22
2022-08-05T03:01:16.097Z,101395.38
2022-08-05T03:06:53.762Z,101406.69
2022-08-05T03:11:56.296Z,101403.22
2022-08-05T03:17:07.350Z,101415.44
2022-08-05T03:22:16.402Z,101429.41
2022-08-05T03:27:22.264Z,101439.06
2022-08-05T03:32:35.140Z,101445.16
2022-08-05T03:37:45.874Z,101440.72
2022-08-05T03:42:51.724Z,101443.31
2022-08-05T03:47:58.307Z,101429.25
2022-08-05T03:55:52.517Z,101424.00
2022-08-05T03:58:41.131Z,101421.34
2022-08-05T04:04:10.407Z,101415.03
2022-08-05T04:09:14.037Z,101407.88
2022-08-05T04:14:29.589Z,101402.47
2022-08-05T04:19:43.332Z,101415.38
2022-08-05T04:24:52.766Z,101415.19
2022-08-05T04:29:56.936Z,101416.81
2022-08-05T04:35:02.221Z,101423.72
2022-08-05T04:40:09.837Z,101420.94
2022-08-05T04:45:22.977Z,101421.56
2022-08-05T04:51:01.591Z,101415.28
2022-08-05T04:56:33.608Z,101419.69
2022-08-05T05:01:33.835Z,101428.25
2022-08-05T05:06:57.665Z,101423.81
2022-08-05T05:12:02.917Z,101424.31
2022-08-05T05:17:07.597Z,101427.84
2022-08-05T05:22:24.411Z,101424.38
2022-08-05T05:27:41.819Z,101424.44
2022-08-05T05:32:49.741Z,101434.00
2022-08-05T05:37:59.838Z,101449.53
2022-08-05T05:43:05.567Z,101455.94
2022-08-05T05:48:12.435Z,101468.22
2022-08-05T05:53:22.794Z,101465.59
2022-08-05T05:58:31.826Z,101471.72
2022-08-05T06:03:53.819Z,101480.41
2022-08-05T06:09:04.004Z,101490.09
2022-08-05T06:14:08.081Z,101486.03
2022-08-05T06:19:12.540Z,101479.94
2022-08-05T06:24:31.111Z,101494.03
2022-08-05T06:29:52.048Z,101482.78
2022-08-05T06:35:00.013Z,101488.91
2022-08-05T06:40:13.733Z,101490.78
2022-08-05T06:45:20.633Z,101495.34
2022-08-05T06:50:26.618Z,101510.38
2022-08-05T06:55:36.171Z,101512.25
2022-08-05T07:00:41.155Z,101519.50
2022-08-05T07:05:46.186Z,101520.53
2022-08-05T07:10:53.823Z,101534.69
2022-08-05T07:18:00.303Z,101531.28
2022-08-05T07:21:59.400Z,101542.72
2022-08-05T07:27:04.699Z,101551.50
2022-08-05T07:32:12.962Z,101558.75
2022-08-05T07:37:18.484Z,101560.69
2022-08-05T07:42:33.806Z,101567.97
2022-08-05T07:47:42.018Z,101573.69
2022-08-05T07:52:46.601Z,101581.75
2022-08-05T07:58:02.098Z,101586.22
2022-08-05T08:03:15.293Z,101584.62
2022-08-05T08:08:20.222Z,101592.72
2022-08-05T08:13:29.423Z,101600.53
2022-08-05T08:18:33.705Z,101612.56
2022-08-05T08:24:01.606Z,101613.44
2022-08-05T08:29:29.366Z,101603.81
2022-08-05T08:34:30.367Z,101618.88
2022-08-05T08:39:37.405Z,101624.62
2022-08-05T08:45:24.143Z,101637.16
2022-08-05T08:50:22.783Z,101638.88
2022-08-05T08:56:03.864Z,101640.66
2022-08-05T09:01:01.773Z,101651.44
2022-08-05T09:06:08.602Z,101658.84
2022-08-05T09:11:15.984Z,101662.66
2022-08-05T09:16:21.253Z,101665.44
2022-08-05T09:22:22.690Z,101666.41
2022-08-05T09:26:58.729Z,101669.06
2022-08-05T09:32:42.089Z,101682.34
2022-08-05T09:38:16.748Z,101692.19
2022-08-05T09:42:53.947Z,101702.75
2022-08-05T09:47:59.056Z,101704.47
2022-08-05T09:53:02.834Z,101702.78
2022-08-05T09:58:11.931Z,101708.09
2022-08-05T10:03:16.987Z,101711.66
2022-08-05T10:08:36.707Z,101711.63
2022-08-05T10:13:45.605Z,101716.00
2022-08-05T10:18:54.693Z,101723.94
2022-08-05T10:24:02.448Z,101723.03
2022-08-05T10:29:09.272Z,101711.47
2022-08-05T10:34:14.704Z,101717.69
2022-08-05T10:39:59.137Z,101719.41
2022-08-05T10:44:50.402Z,101722.59
2022-08-05T10:50:32.108Z,101727.16
2022-08-05T10:56:03.276Z,101742.84
2022-08-05T11:01:03.104Z,101740.41
2022-08-05T11:06:15.326Z,101758.03
2022-08-05T11:11:44.720Z,101756.59
2022-08-05T11:17:59.953Z,101767.09
2022-08-05T11:22:53.922Z,101772.41
2022-08-05T11:28:37.144Z,101781.12
2022-08-05T11:33:54.675Z,101794.41
2022-08-05T11:39:00.054Z,101805.94
2022-08-05T11:44:08.505Z,101819.16
2022-08-05T11:49:14.762Z,101823.56
2022-08-05T11:54:33.284Z,101836.66
2022-08-05T11:59:49.492Z,101828.09
2022-08-05T12:04:58.998Z,101839.75
2022-08-05T12:10:09.304Z,101849.59
2022-08-05T12:15:35.834Z,101843.66
2022-08-05T12:20:42.334Z,101844.66
2022-08-05T12:25:56.650Z,101844.94
2022-08-05T12:31:01.934Z,101852.50
2022-08-05T12:36:08.352Z,101855.88
2022-08-05T12:41:16.182Z,101852.00
2022-08-05T12:46:29.324Z,101864.97
2022-08-05T12:52:13.512Z,101872.16
2022-08-05T12:57:12.985Z,101869.81
2022-08-05T13:02:21.138Z,101881.56
2022-08-05T13:07:57.826Z,101886.72
2022-08-05T13:12:58.837Z,101881.50
2022-08-05T13:18:02.756Z,101894.03
2022-08-05T13:23:07.365Z,101886.53
2022-08-05T13:28:12.906Z,101888.97
2022-08-05T13:34:22.357Z,101902.88
2022-08-05T13:38:42.712Z,101899.53
2022-08-05T13:43:54.509Z,101913.44
2022-08-05T13:49:00.666Z,101919.62
2022-08-05T13:54:11.716Z,101923.16
2022-08-05T13:59:18.541Z,101926.25
2022-08-05T14:04:41.815Z,101930.22
2022-08-05T14:09:46.562Z,101930.94
2022-08-05T14:14:51.792Z,101943.00
2022-08-05T14:20:00.996Z,101945.06
2022-08-05T14:25:21.759Z,101960.16
2022-08-05T14:30:27.923Z,101961.91
2022-08-05T14:35:37.464Z,101958.78
2022-08-05T14:40:54.484Z,101956.09
2022-08-05T14:45:59.752Z,101951.87
2022-08-05T14:51:03.461Z,101951.91
2022-08-05T14:56:07.518Z,101970.66
2022-08-05T15:01:16.072Z,101956.44
2022-08-05T15:06:20.660Z,101968.06
2022-08-05T15:11:51.998Z,101970.78
2022-08-05T15:16:57.615Z,101967.44
2022-08-05T15:22:01.754Z,101976.37
2022-08-05T15:27:09.178Z,101975.41
2022-08-05T15:32:14.399Z,101973.06
2022-08-05T15:38:03.775Z,101990.00
2022-08-05T15:42:57.613Z,101987.03
2022-08-05T15:48:07.107Z,102000.00
2022-08-05T15:53:12.564Z,101994.50
2022-08-05T15:58:17.037Z,102003.63
2022-08-05T16:03:22.284Z,102011.59
2022-08-05T16:08:30.337Z,102014.34
2022-08-05T16:13:35.189Z,102024.06
2022-08-05T16:18:51.675Z,102020.41
2022-08-05T16:24:00.188Z,102036.41
2022-08-05T16:29:06.760Z,102048.81
2022-08-05T16:34:13.545Z,102050.53
2022-08-05T16:39:20.675Z,102054.84
2022-08-05T16:44:25.787Z,102060.00
2022-08-05T16:49:30.934Z,102052.75
2022-08-05T16:54:34.733Z,102076.38
2022-08-05T17:00:01.425Z,102084.19
2022-08-05T17:05:03.832Z,102081.84
2022-08-05T17:10:08.806Z,102083.06
2022-08-05T17:15:15.537Z,102091.75
2022-08-05T17:20:20.823Z,102096.75
2022-08-05T17:25:39.346Z,102113.47
2022-08-05T17:30:51.777Z,102117.09
2022-08-05T17:36:07.485Z,102119.38
2022-08-05T17:42:16.692Z,102134.87
2022-08-05T17:46:37.454Z,102128.47
2022-08-05T17:51:43.787Z,102131.06
2022-08-05T17:56:51.392Z,102147.63
2022-08-05T18:01:55.158Z,102155.09
2022-08-05T18:07:01.103Z,102164.38
2022-08-05T18:12:06.151Z,102163.69
2022-08-05T18:18:00.630Z,102174.38
2022-08-05T18:22:54.087Z,102181.22
2022-08-05T18:27:58.519Z,102186.31
2022-08-05T18:33:02.670Z,102197.50
2022-08-05T18:38:08.146Z,102202.41
2022-08-05T18:43:16.351Z,102202.03
2022-08-05T18:48:31.125Z,102207.00
2022-08-05T18:53:45.780Z,102210.84
2022-08-05T18:58:54.994Z,102221.47
2022-08-05T19:04:05.644Z,102218.56
2022-08-05T19:09:17.294Z,102230.72
2022-08-05T19:14:44.910Z,102235.16
2022-08-05T19:19:46.821Z,102237.34
2022-08-05T19:24:54.546Z,102240.78
2022-08-05T19:30:02.952Z,102249.59
2022-08-05T19:35:08.626Z,102252.59
2022-08-05T19:40:15.069Z,102259.41
2022-08-05T19:45:19.033Z,102261.66
2022-08-05T19:50:22.800Z,102259.12
2022-08-05T19:56:14.954Z,102269.53
2022-08-05T20:00:53.799Z,102282.19
2022-08-05T20:05:57.874Z,102278.34
2022-08-05T20:11:03.138Z,102292.75
2022-08-05T20:16:07.221Z,102307.94
2022-08-05T20:21:11.333Z,102309.28
2022-08-05T20:26:17.496Z,102314.97
2022-08-05T20:31:28.570Z,102320.81
2022-08-05T20:36:46.919Z,102328.22
2022-08-05T20:41:52.544Z,102333.75
2022-08-05T20:46:56.455Z,102337.00
2022-08-05T20:52:00.453Z,102339.44
2022-08-05T20:57:07.063Z,102340.72
2022-08-05T21:02:12.887Z,102343.16
2022-08-05T21:07:21.864Z,102343.53
2022-08-05T21:12:27.498Z,102351.19
2022-08-05T21:17:31.955Z,102358.69
2022-08-05T21:22:36.708Z,102360.28
2022-08-05T21:27:47.508Z,102356.50
2022-08-05T21:32:51.530Z,102353.62
2022-08-05T21:37:55.301Z,102369.88
2022-08-05T21:43:00.367Z,102377.34
2022-08-05T21:48:06.251Z,102369.19
2022-08-05T21:53:16.153Z,102371.31
2022-08-05T21:58:24.879Z,102378.09
2022-08-05T22:03:52.229Z,102389.81
2022-08-05T22:08:57.543Z,102393.94
2022-08-05T22:14:34.117Z,102398.06
2022-08-05T22:19:57.431Z,102398.47
2022-08-05T22:25:08.678Z,102399.72
2022-08-05T22:30:22.803Z,102396.91
2022-08-05T22:35:26.550Z,102403.37
2022-08-05T22:40:49.871Z,102403.37
2022-08-05T22:46:00.138Z,102411.16
2022-08-05T22:51:07.042Z,102409.09
2022-08-05T22:56:11.400Z,102419.25
2022-08-05T23:01:18.388Z,102426.19
2022-08-05T23:06:26.428Z,102428.31
2022-08-05T23:11:30.318Z,102433.78
2022-08-05T23:16:53.385Z,102435.34
2022-08-05T23:21:57.072Z,102440.97
2022-08-05T23:27:02.177Z,102438.75
2022-08-05T23:32:08.803Z,102435.66
2022-08-05T23:37:14.493Z,102441.62
2022-08-05T23:42:29.165Z,102446.50
2022-08-05T23:47:35.029Z,102454.94
2022-08-05T23:52:54.544Z,102462.38
2022-08-05T23:57:59.480Z,102461.84
